< < Back
Terminal Aerodrome Forecast


Current Version              Previous Versions:   1  2  3  4  5  6  7  8  9  

Terminal Aerodrome Forecast

192
FTUS42 KGSP 311002 AAC
TAFAND
TAF AMD
KAND 311002Z 3110/0106 04003KT 6SM BR SCT012
      TEMPO 3110/3114 4SM BR BKN010
     FM311500 05005KT P6SM BKN025
     FM311700 06005KT P6SM BKN050
     FM010000 00000KT P6SM SCT060 BKN200=

Latest METAR

848
SAUS70 KWBC 311900 RRC
MTRAND
METAR KAND 311856Z AUTO 00000KT 10SM CLR 28/18 A3010 RMK AO2 SLP182
T02830183


USA.gov is the U.S. government's official web portal to all federal, state and local government web resources and services.